createdAt,value
2019-04-30T00:00:01.941Z,23.20
2019-04-30T00:02:50.154Z,22.67
2019-04-30T00:05:19.124Z,24.03
2019-04-30T00:07:50.890Z,23.90
2019-04-30T00:10:17.736Z,23.00
2019-04-30T00:12:46.415Z,24.20
2019-04-30T00:15:16.198Z,20.93
2019-04-30T00:17:46.019Z,24.60
2019-04-30T00:20:17.633Z,22.60
2019-04-30T00:22:48.955Z,21.07
2019-04-30T00:25:19.620Z,20.23
2019-04-30T00:27:48.130Z,21.83
2019-04-30T00:30:16.306Z,22.77
2019-04-30T00:32:46.918Z,24.17
2019-04-30T00:35:16.271Z,23.47
2019-04-30T00:37:47.438Z,22.90
2019-04-30T00:40:15.527Z,22.20
2019-04-30T00:42:45.677Z,23.10
2019-04-30T00:45:15.468Z,24.90
2019-04-30T00:47:47.772Z,25.57
2019-04-30T00:50:14.977Z,23.67
2019-04-30T00:52:43.560Z,24.93
2019-04-30T00:55:12.064Z,24.77
2019-04-30T00:57:43.854Z,24.63
2019-04-30T01:00:12.073Z,23.97
2019-04-30T01:02:50.866Z,25.20
2019-04-30T01:05:20.952Z,25.93
2019-04-30T01:07:51.831Z,24.83
2019-04-30T01:10:24.091Z,24.43
2019-04-30T01:12:50.357Z,26.13
2019-04-30T01:15:19.155Z,26.60
2019-04-30T01:17:51.079Z,24.80
2019-04-30T01:20:19.376Z,25.80
2019-04-30T01:22:48.672Z,27.17
2019-04-30T01:25:18.730Z,26.77
2019-04-30T01:27:49.103Z,26.33
2019-04-30T01:30:22.418Z,25.97
2019-04-30T01:32:52.171Z,27.50
2019-04-30T01:35:19.151Z,26.80
2019-04-30T01:37:48.814Z,26.90
2019-04-30T01:40:18.986Z,27.60
2019-04-30T01:42:50.754Z,27.23
2019-04-30T01:45:18.756Z,27.87
2019-04-30T01:47:49.475Z,29.00
2019-04-30T01:50:19.282Z,28.43
2019-04-30T01:52:53.434Z,28.80
2019-04-30T01:55:27.062Z,27.77
2019-04-30T01:58:13.194Z,27.57
2019-04-30T02:00:46.034Z,30.07
2019-04-30T02:03:14.510Z,27.17
2019-04-30T02:05:42.924Z,26.63
2019-04-30T02:08:11.360Z,29.70
2019-04-30T02:10:40.378Z,28.43
2019-04-30T02:13:09.015Z,30.10
2019-04-30T02:15:38.990Z,26.87
2019-04-30T02:18:08.543Z,28.90
2019-04-30T02:20:38.418Z,28.20
2019-04-30T02:23:07.035Z,28.47
2019-04-30T02:25:35.452Z,27.00
2019-04-30T02:28:03.963Z,30.70
2019-04-30T02:30:32.442Z,29.27
2019-04-30T02:33:00.974Z,27.93
2019-04-30T02:35:40.638Z,28.83
2019-04-30T02:38:19.731Z,30.00
2019-04-30T02:40:49.786Z,27.37
2019-04-30T02:43:20.480Z,29.00
2019-04-30T02:45:51.208Z,29.17
2019-04-30T02:48:22.543Z,29.60
2019-04-30T02:50:53.162Z,30.07
2019-04-30T02:53:50.763Z,31.13
2019-04-30T02:56:20.749Z,30.13
2019-04-30T02:58:50.540Z,30.37
2019-04-30T03:01:20.216Z,29.63
2019-04-30T03:03:50.134Z,27.33
2019-04-30T03:06:23.221Z,28.57
2019-04-30T03:08:51.106Z,28.47
2019-04-30T03:11:20.691Z,25.60
2019-04-30T03:13:52.222Z,28.00
2019-04-30T03:16:22.282Z,28.90
2019-04-30T03:18:52.341Z,28.40
2019-04-30T03:21:40.501Z,27.80
2019-04-30T03:24:10.719Z,26.70
2019-04-30T03:26:40.100Z,26.13
2019-04-30T03:29:11.381Z,25.93
2019-04-30T03:31:44.268Z,24.17
2019-04-30T03:34:16.838Z,27.27
2019-04-30T03:36:40.416Z,24.37
2019-04-30T03:39:10.881Z,26.97
2019-04-30T03:41:41.527Z,26.87
2019-04-30T03:44:20.824Z,25.30
2019-04-30T03:46:40.288Z,25.33
2019-04-30T03:49:12.559Z,25.63
2019-04-30T03:51:40.354Z,26.60
2019-04-30T03:54:10.075Z,27.37
2019-04-30T03:56:39.890Z,26.33
2019-04-30T03:59:10.570Z,26.00
2019-04-30T04:01:55.742Z,27.07
2019-04-30T04:04:30.923Z,27.30
2019-04-30T04:07:16.867Z,27.77
2019-04-30T04:10:03.006Z,27.17
2019-04-30T04:12:31.580Z,27.67
2019-04-30T04:15:00.744Z,28.70
2019-04-30T04:17:31.496Z,26.63
2019-04-30T04:20:00.191Z,27.43
2019-04-30T04:22:30.577Z,27.37
2019-04-30T04:25:00.054Z,25.73
2019-04-30T04:27:30.193Z,28.13
2019-04-30T04:30:01.183Z,27.30
2019-04-30T04:32:30.880Z,26.57
2019-04-30T04:35:00.156Z,28.77
2019-04-30T04:37:30.277Z,27.57
2019-04-30T04:39:59.651Z,27.63
2019-04-30T04:42:29.962Z,29.27
2019-04-30T04:44:59.549Z,27.07
2019-04-30T04:47:30.734Z,27.07
2019-04-30T04:50:00.738Z,27.03
2019-04-30T04:52:31.643Z,28.03
2019-04-30T04:55:00.399Z,27.33
2019-04-30T04:57:30.316Z,27.00
2019-04-30T05:00:06.449Z,26.73
2019-04-30T05:02:49.475Z,27.83
2019-04-30T05:05:19.231Z,28.93
2019-04-30T05:07:48.629Z,26.73
2019-04-30T05:10:19.073Z,26.33
2019-04-30T05:12:50.620Z,27.67
2019-04-30T05:15:19.445Z,26.93
2019-04-30T05:17:49.465Z,27.90
2019-04-30T05:20:19.515Z,31.30
2019-04-30T05:22:48.908Z,26.87
2019-04-30T05:25:18.664Z,28.60
2019-04-30T05:27:48.839Z,29.43
2019-04-30T05:30:19.791Z,29.17
2019-04-30T05:32:50.431Z,28.13
2019-04-30T05:35:18.731Z,28.90
2019-04-30T05:37:47.216Z,28.17
2019-04-30T05:40:15.653Z,30.10
2019-04-30T05:42:45.885Z,29.83
2019-04-30T05:45:14.676Z,29.43
2019-04-30T05:47:43.112Z,32.73
2019-04-30T05:50:11.796Z,31.70
2019-04-30T05:52:40.300Z,31.80
2019-04-30T05:55:09.080Z,31.83
2019-04-30T05:57:40.819Z,28.73
2019-04-30T06:00:09.983Z,29.30
2019-04-30T06:02:39.928Z,30.17
2019-04-30T06:05:09.023Z,29.80
2019-04-30T06:07:39.316Z,30.87
2019-04-30T06:10:09.656Z,30.63
2019-04-30T06:12:39.903Z,31.13
2019-04-30T06:15:16.070Z,30.30
2019-04-30T06:17:57.972Z,31.70
2019-04-30T06:20:20.421Z,29.20
2019-04-30T06:22:49.708Z,29.47
2019-04-30T06:25:28.383Z,30.90
2019-04-30T06:27:48.876Z,30.43
2019-04-30T06:30:19.721Z,29.83
2019-04-30T06:32:49.623Z,31.83
2019-04-30T06:35:19.334Z,28.80
2019-04-30T06:37:48.906Z,29.43
2019-04-30T06:40:19.563Z,31.90
2019-04-30T06:42:49.572Z,32.20
2019-04-30T06:45:19.163Z,30.00
2019-04-30T06:47:48.917Z,31.70
2019-04-30T06:50:19.379Z,29.57
2019-04-30T06:52:56.331Z,29.87
2019-04-30T06:55:19.291Z,33.93
2019-04-30T06:57:49.702Z,29.37
2019-04-30T07:00:20.706Z,31.37
2019-04-30T07:02:49.441Z,29.40
2019-04-30T07:05:18.543Z,33.70
2019-04-30T07:08:09.275Z,28.13
2019-04-30T07:10:36.236Z,32.10
2019-04-30T07:13:06.382Z,30.40
2019-04-30T07:15:34.797Z,32.83
2019-04-30T07:18:03.252Z,31.03
2019-04-30T07:20:34.002Z,29.70
2019-04-30T07:23:03.260Z,30.27
2019-04-30T07:25:31.940Z,30.80
2019-04-30T07:28:00.550Z,31.17
2019-04-30T07:30:30.867Z,31.43
2019-04-30T07:32:59.673Z,32.13
2019-04-30T07:35:29.230Z,30.70
2019-04-30T07:38:00.641Z,29.80
2019-04-30T07:40:29.263Z,28.97
2019-04-30T07:42:59.087Z,30.27
2019-04-30T07:45:31.569Z,30.47
2019-04-30T07:47:59.389Z,31.60
2019-04-30T07:50:30.606Z,30.60
2019-04-30T07:53:05.202Z,27.60
2019-04-30T07:55:29.510Z,30.50
2019-04-30T07:57:59.142Z,30.37
2019-04-30T08:00:30.967Z,30.43
2019-04-30T08:03:02.697Z,28.63
2019-04-30T08:05:32.757Z,30.80
2019-04-30T08:08:16.812Z,31.70
2019-04-30T08:10:31.426Z,29.80
2019-04-30T08:13:08.256Z,29.33
2019-04-30T08:15:30.174Z,30.00
2019-04-30T08:18:03.497Z,33.03
2019-04-30T08:20:29.541Z,28.50
2019-04-30T08:23:07.054Z,30.53
2019-04-30T08:25:29.075Z,28.50
2019-04-30T08:27:59.155Z,33.37
2019-04-30T08:30:29.885Z,29.90
2019-04-30T08:32:59.585Z,29.53
2019-04-30T08:35:29.689Z,30.07
2019-04-30T08:37:59.031Z,31.93
2019-04-30T08:40:29.629Z,28.57
2019-04-30T08:42:59.438Z,33.93
2019-04-30T08:45:31.098Z,32.43
2019-04-30T08:47:59.013Z,31.10
2019-04-30T08:50:29.600Z,29.83
2019-04-30T08:52:59.630Z,29.23
2019-04-30T08:55:30.470Z,29.17
2019-04-30T08:58:09.645Z,28.87
2019-04-30T09:00:29.730Z,29.50
2019-04-30T09:02:59.380Z,29.77
2019-04-30T09:05:35.569Z,30.50
2019-04-30T09:08:05.851Z,30.57
2019-04-30T09:10:34.322Z,30.27
2019-04-30T09:13:03.013Z,30.00
2019-04-30T09:15:31.497Z,31.63
2019-04-30T09:18:05.805Z,28.40
2019-04-30T09:20:30.578Z,27.50
2019-04-30T09:22:59.643Z,33.20
2019-04-30T09:25:28.819Z,29.00
2019-04-30T09:27:58.805Z,31.10
2019-04-30T09:30:29.805Z,31.30
2019-04-30T09:32:59.486Z,27.87
2019-04-30T09:35:31.383Z,27.40
2019-04-30T09:38:01.633Z,27.30
2019-04-30T09:40:32.173Z,29.03
2019-04-30T09:43:00.302Z,28.07
2019-04-30T09:45:29.286Z,31.07
2019-04-30T09:47:59.231Z,27.53
2019-04-30T09:50:28.990Z,29.90
2019-04-30T09:53:00.179Z,36.60
2019-04-30T09:55:29.044Z,30.17
2019-04-30T09:57:58.847Z,30.17
2019-04-30T10:00:29.490Z,30.93
2019-04-30T10:02:59.866Z,28.57
2019-04-30T10:05:29.308Z,28.03
2019-04-30T10:07:59.398Z,31.00
2019-04-30T10:10:29.903Z,30.37
2019-04-30T10:12:59.308Z,28.27
2019-04-30T10:15:41.741Z,28.40
2019-04-30T10:18:10.637Z,30.80
2019-04-30T10:20:41.598Z,28.47
2019-04-30T10:23:11.665Z,29.80
2019-04-30T10:25:40.181Z,28.33
2019-04-30T10:28:09.993Z,30.73
2019-04-30T10:30:38.844Z,31.70
2019-04-30T10:33:09.820Z,28.30
2019-04-30T10:35:38.498Z,29.03
2019-04-30T10:38:07.283Z,29.53
2019-04-30T10:40:39.041Z,28.03
2019-04-30T10:43:08.908Z,28.87
2019-04-30T10:45:38.781Z,28.00
2019-04-30T10:48:07.665Z,30.53
2019-04-30T10:50:36.221Z,28.33
2019-04-30T10:53:04.825Z,25.73
2019-04-30T10:55:33.345Z,26.83
2019-04-30T10:58:01.785Z,25.37
2019-04-30T11:00:41.097Z,27.07
2019-04-30T11:03:19.056Z,23.83
2019-04-30T11:05:41.268Z,26.27
2019-04-30T11:08:10.238Z,24.20
2019-04-30T11:10:39.927Z,26.23
2019-04-30T11:13:08.562Z,27.37
2019-04-30T11:15:36.984Z,25.20
2019-04-30T11:18:05.896Z,25.70
2019-04-30T11:20:34.692Z,27.17
2019-04-30T11:23:13.888Z,26.77
2019-04-30T11:25:34.383Z,25.20
2019-04-30T11:28:03.760Z,24.80
2019-04-30T11:30:32.821Z,27.10
2019-04-30T11:33:01.632Z,24.27
2019-04-30T11:35:30.226Z,26.33
2019-04-30T11:37:58.727Z,23.30
2019-04-30T11:40:36.644Z,24.03
2019-04-30T11:43:00.556Z,24.67
2019-04-30T11:45:40.960Z,24.27
2019-04-30T11:48:09.420Z,33.00
2019-04-30T11:50:39.438Z,43.43
2019-04-30T11:53:24.091Z,60.70
2019-04-30T11:55:39.042Z,53.00
2019-04-30T11:58:07.540Z,37.20
2019-04-30T12:00:39.470Z,25.20
2019-04-30T12:03:09.052Z,25.67
2019-04-30T12:05:38.918Z,23.00
2019-04-30T12:08:19.428Z,22.67
2019-04-30T12:10:52.615Z,24.00
2019-04-30T12:13:28.022Z,24.37
2019-04-30T12:15:58.678Z,22.63
2019-04-30T12:18:26.973Z,23.87
2019-04-30T12:20:55.485Z,22.73
2019-04-30T12:23:23.967Z,21.30
2019-04-30T12:25:52.429Z,19.87
2019-04-30T12:28:20.995Z,22.90
2019-04-30T12:30:49.577Z,22.90
2019-04-30T12:33:19.173Z,23.07
2019-04-30T12:35:50.906Z,19.93
2019-04-30T12:38:19.139Z,19.73
2019-04-30T12:40:48.073Z,27.00
2019-04-30T12:43:16.525Z,20.03
2019-04-30T12:45:45.037Z,18.13
2019-04-30T12:48:18.585Z,17.37
2019-04-30T12:50:55.751Z,16.43
2019-04-30T12:53:28.524Z,16.40
2019-04-30T12:56:00.260Z,16.83
2019-04-30T12:58:28.824Z,16.63
2019-04-30T13:00:59.140Z,15.37
2019-04-30T13:03:28.352Z,13.53
2019-04-30T13:06:00.648Z,15.07
2019-04-30T13:08:28.400Z,14.33
2019-04-30T13:10:57.687Z,15.53
2019-04-30T13:13:26.826Z,17.73
2019-04-30T13:15:56.070Z,18.33
2019-04-30T13:18:24.597Z,14.77
2019-04-30T13:20:53.163Z,14.37
2019-04-30T13:23:21.721Z,14.80
2019-04-30T13:25:51.666Z,13.50
2019-04-30T13:28:24.609Z,15.20
2019-04-30T13:30:53.113Z,14.50
2019-04-30T13:33:23.229Z,14.93
2019-04-30T13:35:51.656Z,13.47
2019-04-30T13:38:24.270Z,14.43
2019-04-30T13:41:03.164Z,12.47
2019-04-30T13:43:51.145Z,13.40
2019-04-30T13:46:19.616Z,12.13
2019-04-30T13:48:48.161Z,13.00
2019-04-30T13:51:16.588Z,13.83
2019-04-30T13:53:45.133Z,14.87
2019-04-30T13:56:13.533Z,15.13
2019-04-30T13:58:41.970Z,14.57
2019-04-30T14:01:10.515Z,14.63
2019-04-30T14:03:58.911Z,13.53
2019-04-30T14:06:31.270Z,13.37
2019-04-30T14:09:16.201Z,13.70
2019-04-30T14:11:44.623Z,12.00
2019-04-30T14:14:13.209Z,11.60
2019-04-30T14:16:43.819Z,12.20
2019-04-30T14:19:11.904Z,14.03
2019-04-30T14:21:41.215Z,13.00
2019-04-30T14:24:09.667Z,13.00
2019-04-30T14:26:39.145Z,13.43
2019-04-30T14:29:07.700Z,15.47
2019-04-30T14:31:36.198Z,13.03
2019-04-30T14:34:04.805Z,12.43
2019-04-30T14:36:33.284Z,12.97
2019-04-30T14:39:13.444Z,13.93
2019-04-30T14:41:32.882Z,15.87
2019-04-30T14:44:09.106Z,13.90
2019-04-30T14:46:45.892Z,11.50
2019-04-30T14:49:21.845Z,11.30
2019-04-30T14:51:51.282Z,11.27
2019-04-30T14:54:21.164Z,12.27
2019-04-30T14:57:07.585Z,11.80
2019-04-30T14:59:43.370Z,12.10
2019-04-30T15:02:16.193Z,11.27
2019-04-30T15:04:44.864Z,14.13
2019-04-30T15:07:13.386Z,10.80
2019-04-30T15:09:41.808Z,12.20
2019-04-30T15:12:10.291Z,12.70
2019-04-30T15:14:40.889Z,11.50
2019-04-30T15:17:09.060Z,11.90
2019-04-30T15:19:37.549Z,12.77
2019-04-30T15:22:06.077Z,11.97
2019-04-30T15:24:39.438Z,13.17
2019-04-30T15:27:09.200Z,13.80
2019-04-30T15:29:39.209Z,12.60
2019-04-30T15:32:08.636Z,11.93
2019-04-30T15:34:39.307Z,11.13
2019-04-30T15:37:18.767Z,11.20
2019-04-30T15:39:39.469Z,13.70
2019-04-30T15:42:08.897Z,13.80
2019-04-30T15:44:43.219Z,13.67
2019-04-30T15:47:09.146Z,13.10
2019-04-30T15:49:38.005Z,10.97
2019-04-30T15:52:06.610Z,11.77
2019-04-30T15:54:35.330Z,11.03
2019-04-30T15:57:04.334Z,11.47
2019-04-30T15:59:34.474Z,9.90
2019-04-30T16:02:20.668Z,12.00
2019-04-30T16:04:50.781Z,12.23
2019-04-30T16:07:19.673Z,12.93
2019-04-30T16:09:49.818Z,13.00
2019-04-30T16:12:22.679Z,11.70
2019-04-30T16:14:51.105Z,10.87
2019-04-30T16:17:23.630Z,12.13
2019-04-30T16:19:52.126Z,12.73
2019-04-30T16:22:20.966Z,13.43
2019-04-30T16:24:49.609Z,12.87
2019-04-30T16:27:19.152Z,12.50
2019-04-30T16:29:49.724Z,11.73
2019-04-30T16:32:18.701Z,12.30
2019-04-30T16:34:49.358Z,11.17
2019-04-30T16:37:19.962Z,12.83
2019-04-30T16:39:47.632Z,11.57
2019-04-30T16:42:16.053Z,15.33
2019-04-30T16:44:44.583Z,12.27
2019-04-30T16:47:16.635Z,13.67
2019-04-30T16:49:43.218Z,12.37
2019-04-30T16:52:11.703Z,15.07
2019-04-30T16:54:40.166Z,16.13
2019-04-30T16:57:10.251Z,13.83
2019-04-30T16:59:40.627Z,13.23
2019-04-30T17:02:09.842Z,13.60
2019-04-30T17:04:42.459Z,15.40
2019-04-30T17:07:15.078Z,15.20
2019-04-30T17:09:45.173Z,13.70
2019-04-30T17:12:23.797Z,14.07
2019-04-30T17:15:10.260Z,14.23
2019-04-30T17:17:39.720Z,14.73
2019-04-30T17:20:08.506Z,13.37
2019-04-30T17:22:36.936Z,15.23
2019-04-30T17:25:07.928Z,14.40
2019-04-30T17:27:36.450Z,14.33
2019-04-30T17:30:11.096Z,13.50
2019-04-30T17:32:39.738Z,14.73
2019-04-30T17:35:09.595Z,11.60
2019-04-30T17:37:38.035Z,13.50
2019-04-30T17:40:09.236Z,13.63
2019-04-30T17:42:37.320Z,12.93
2019-04-30T17:45:09.451Z,14.17
2019-04-30T17:47:37.843Z,15.83
2019-04-30T17:50:09.007Z,13.70
2019-04-30T17:52:37.301Z,11.63
2019-04-30T17:55:25.149Z,11.77
2019-04-30T17:57:55.004Z,12.07
2019-04-30T18:00:24.317Z,12.63
2019-04-30T18:02:52.853Z,13.57
2019-04-30T18:05:21.357Z,17.93
2019-04-30T18:07:49.958Z,14.80
2019-04-30T18:10:19.831Z,12.43
2019-04-30T18:12:48.397Z,10.50
2019-04-30T18:15:18.822Z,13.00
2019-04-30T18:17:49.047Z,11.70
2019-04-30T18:20:19.232Z,12.50
2019-04-30T18:22:54.928Z,13.20
2019-04-30T18:25:30.902Z,14.00
2019-04-30T18:28:01.047Z,11.53
2019-04-30T18:30:33.814Z,13.20
2019-04-30T18:33:02.361Z,12.80
2019-04-30T18:35:30.901Z,27.10
2019-04-30T18:37:59.371Z,24.77
2019-04-30T18:40:29.611Z,16.10
2019-04-30T18:42:59.383Z,14.70
2019-04-30T18:45:28.833Z,14.63
2019-04-30T18:47:59.436Z,14.97
2019-04-30T18:50:27.700Z,14.60
2019-04-30T18:52:58.748Z,15.00
2019-04-30T18:55:27.509Z,14.23
2019-04-30T18:57:57.138Z,16.50
2019-04-30T19:00:37.058Z,18.13
2019-04-30T19:03:05.640Z,16.20
2019-04-30T19:05:34.664Z,15.07
2019-04-30T19:08:22.756Z,20.40
2019-04-30T19:10:58.872Z,20.43
2019-04-30T19:13:45.223Z,23.57
2019-04-30T19:16:30.309Z,21.47
2019-04-30T19:19:06.273Z,16.17
2019-04-30T19:21:35.414Z,16.63
2019-04-30T19:24:04.138Z,16.17
2019-04-30T19:26:32.743Z,18.03
2019-04-30T19:29:01.268Z,17.67
2019-04-30T19:31:29.742Z,17.13
2019-04-30T19:33:58.861Z,18.03
2019-04-30T19:36:34.998Z,18.07
2019-04-30T19:38:59.701Z,17.33
2019-04-30T19:41:28.722Z,18.87
2019-04-30T19:43:57.377Z,20.07
2019-04-30T19:46:25.897Z,18.80
2019-04-30T19:48:54.730Z,18.30
2019-04-30T19:51:23.543Z,20.93
2019-04-30T19:53:52.114Z,20.67
2019-04-30T19:56:20.740Z,21.00
2019-04-30T19:59:01.651Z,20.10
2019-04-30T20:01:19.771Z,23.10
2019-04-30T20:03:48.760Z,19.40
2019-04-30T20:06:19.014Z,19.97
2019-04-30T20:08:47.571Z,19.53
2019-04-30T20:11:16.111Z,19.53
2019-04-30T20:13:44.599Z,18.47
2019-04-30T20:16:13.078Z,21.13
2019-04-30T20:18:41.522Z,19.87
2019-04-30T20:21:11.793Z,20.73
2019-04-30T20:23:40.426Z,18.47
2019-04-30T20:26:08.944Z,19.80
2019-04-30T20:28:40.017Z,21.40
2019-04-30T20:31:09.104Z,19.80
2019-04-30T20:33:38.888Z,21.53
2019-04-30T20:36:09.214Z,23.50
2019-04-30T20:38:42.238Z,27.00
2019-04-30T20:41:11.875Z,23.20
2019-04-30T20:43:40.319Z,21.53
2019-04-30T20:46:08.874Z,22.93
2019-04-30T20:48:39.341Z,23.27
2019-04-30T20:51:09.166Z,21.33
2019-04-30T20:53:39.319Z,21.33
2019-04-30T20:56:09.210Z,22.87
2019-04-30T20:58:40.499Z,21.77
2019-04-30T21:01:09.585Z,21.13
2019-04-30T21:03:39.573Z,22.70
2019-04-30T21:06:08.894Z,20.13
2019-04-30T21:08:37.410Z,20.47
2019-04-30T21:11:05.912Z,22.87
2019-04-30T21:13:34.387Z,22.30
2019-04-30T21:16:02.823Z,22.10
2019-04-30T21:18:32.527Z,23.83
2019-04-30T21:21:01.087Z,23.83
2019-04-30T21:23:29.627Z,23.90
2019-04-30T21:25:58.936Z,23.57
2019-04-30T21:28:29.523Z,22.93
2019-04-30T21:30:59.612Z,21.47
2019-04-30T21:33:29.782Z,23.10
2019-04-30T21:36:02.976Z,24.17
2019-04-30T21:38:31.589Z,24.47
2019-04-30T21:41:01.214Z,22.80
2019-04-30T21:43:29.863Z,22.27
2019-04-30T21:45:59.367Z,24.33
2019-04-30T21:48:28.742Z,22.33
2019-04-30T21:50:59.202Z,26.23
2019-04-30T21:53:29.352Z,24.80
2019-04-30T21:55:57.634Z,25.33
2019-04-30T21:58:26.142Z,24.73
2019-04-30T22:01:08.221Z,25.70
2019-04-30T22:03:39.241Z,33.67
2019-04-30T22:06:08.483Z,24.67
2019-04-30T22:08:38.810Z,25.47
2019-04-30T22:11:09.585Z,25.93
2019-04-30T22:13:39.479Z,26.77
2019-04-30T22:16:08.271Z,27.53
2019-04-30T22:18:36.784Z,30.43
2019-04-30T22:21:05.462Z,27.67
2019-04-30T22:23:33.960Z,27.60
2019-04-30T22:26:02.550Z,28.17
2019-04-30T22:28:31.026Z,26.93
2019-04-30T22:30:59.606Z,28.40
2019-04-30T22:33:29.241Z,26.30
2019-04-30T22:36:02.272Z,28.70
2019-04-30T22:38:35.029Z,27.13
2019-04-30T22:41:03.656Z,28.23
2019-04-30T22:43:32.224Z,29.40
2019-04-30T22:46:02.368Z,28.77
2019-04-30T22:48:30.809Z,28.33
2019-04-30T22:50:59.353Z,29.47
2019-04-30T22:53:27.871Z,30.97
2019-04-30T22:55:56.335Z,30.00
2019-04-30T22:58:24.901Z,30.90
2019-04-30T23:00:55.136Z,31.30
2019-04-30T23:03:28.185Z,29.77
2019-04-30T23:05:56.822Z,28.80
2019-04-30T23:08:25.253Z,26.03
2019-04-30T23:10:54.031Z,29.20
2019-04-30T23:13:22.784Z,30.53
2019-04-30T23:15:54.300Z,29.90
2019-04-30T23:18:22.824Z,31.57
2019-04-30T23:20:51.534Z,31.67
2019-04-30T23:23:19.972Z,31.50
2019-04-30T23:25:48.419Z,31.63
2019-04-30T23:28:16.856Z,28.50
2019-04-30T23:30:45.336Z,29.40
2019-04-30T23:33:13.868Z,29.57
2019-04-30T23:35:42.355Z,30.33
2019-04-30T23:38:10.788Z,28.90
2019-04-30T23:40:50.816Z,30.43
2019-04-30T23:43:19.876Z,30.23
2019-04-30T23:45:48.429Z,27.97
2019-04-30T23:48:16.876Z,28.57
2019-04-30T23:50:45.389Z,27.90
2019-04-30T23:53:13.832Z,27.40
2019-04-30T23:55:42.393Z,29.80
2019-04-30T23:58:10.883Z,29.63
